Time;durP1;ratioP1;P1;durP2;ratioP2;P2;SDS_P1;SDS_P2;PMS_P1;PMS_P2;Temp;Humidity;BMP_temperature;BMP_pressure;BME280_temperature;BME280_humidity;BME280_pressure;Samples;Min_cycle;Max_cycle;Signal;HPM_P1;HPM_P2
2021/07/29 00:00:05;;;;;;;9.60;6.88;;;20.40;1.00;;;;;;5053860;28;20547;-84
2021/07/29 00:02:30;;;;;;;8.95;6.57;;;20.30;1.00;;;;;;5053719;28;20028;-84
2021/07/29 00:04:56;;;;;;;6.60;6.00;;;20.30;1.00;;;;;;5050739;28;20087;-84
2021/07/29 00:07:21;;;;;;;10.45;7.05;;;20.30;1.00;;;;;;5053079;28;20448;-84
2021/07/29 00:09:47;;;;;;;9.48;7.03;;;20.20;1.00;;;;;;5053272;28;20032;-84
2021/07/29 00:12:13;;;;;;;11.75;6.60;;;20.20;1.00;;;;;;5053852;28;20465;-83
2021/07/29 00:14:46;;;;;;;9.98;6.28;;;20.10;1.00;;;;;;5053643;28;20029;-84
2021/07/29 00:17:26;;;;;;;9.65;6.47;;;20.10;1.00;;;;;;5052450;28;20036;-84
2021/07/29 00:19:52;;;;;;;7.45;6.18;;;20.10;1.00;;;;;;5037201;28;20021;-84
2021/07/29 00:22:18;;;;;;;7.38;6.47;;;20.10;1.00;;;;;;5053537;28;20025;-84
2021/07/29 00:24:43;;;;;;;7.68;5.97;;;20.00;1.00;;;;;;5054957;28;20017;-84
2021/07/29 00:27:09;;;;;;;8.43;6.90;;;20.00;1.00;;;;;;5053939;28;20033;-84
2021/07/29 00:29:35;;;;;;;9.10;6.80;;;20.10;1.00;;;;;;5054013;28;20051;-84
2021/07/29 00:32:00;;;;;;;9.23;6.25;;;20.00;1.00;;;;;;5051648;28;20039;-84
2021/07/29 00:34:26;;;;;;;8.18;6.47;;;19.90;1.00;;;;;;5052500;28;20491;-84
2021/07/29 00:36:51;;;;;;;10.18;7.07;;;19.70;1.00;;;;;;5053476;28;20494;-84
2021/07/29 00:39:17;;;;;;;7.30;6.57;;;19.60;1.00;;;;;;5053508;28;20040;-84
2021/07/29 00:41:43;;;;;;;8.25;6.57;;;19.60;1.00;;;;;;5053853;28;20025;-84
2021/07/29 00:44:08;;;;;;;7.43;6.72;;;19.60;1.00;;;;;;5051550;28;20032;-84
2021/07/29 00:46:34;;;;;;;7.68;6.40;;;19.60;1.00;;;;;;5049836;28;20042;-84
2021/07/29 00:49:01;;;;;;;7.07;6.30;;;19.60;1.00;;;;;;5057551;28;20029;-84
2021/07/29 00:51:28;;;;;;;8.52;6.10;;;19.60;1.00;;;;;;5057164;28;20033;-83
2021/07/29 00:53:55;;;;;;;6.88;6.18;;;19.70;1.00;;;;;;5056691;28;20556;-84
2021/07/29 00:56:20;;;;;;;7.75;6.95;;;19.70;1.00;;;;;;5057644;28;20135;-84
2021/07/29 00:58:46;;;;;;;6.63;6.03;;;19.70;1.00;;;;;;5053590;28;20096;-84
2021/07/29 01:01:12;;;;;;;6.75;5.53;;;19.80;1.00;;;;;;5058247;28;20029;-84
2021/07/29 01:03:38;;;;;;;9.43;6.07;;;19.80;1.00;;;;;;5057375;28;20373;-83
2021/07/29 01:06:04;;;;;;;7.90;6.47;;;19.80;1.00;;;;;;5056762;28;20487;-84
2021/07/29 01:08:29;;;;;;;8.50;6.30;;;19.70;1.00;;;;;;5056615;28;20028;-84
2021/07/29 01:10:55;;;;;;;7.63;6.60;;;19.70;1.00;;;;;;5053758;28;20386;-84
2021/07/29 01:13:20;;;;;;;8.82;6.75;;;19.70;1.00;;;;;;5055808;28;20021;-84
2021/07/29 01:15:46;;;;;;;7.75;6.53;;;19.60;1.00;;;;;;5058012;28;20043;-84
2021/07/29 01:18:12;;;;;;;7.68;6.35;;;19.70;1.00;;;;;;5056958;28;20489;-83
2021/07/29 01:20:38;;;;;;;9.63;6.43;;;19.80;1.00;;;;;;5056827;28;20045;-84
2021/07/29 01:23:03;;;;;;;7.28;6.15;;;19.80;1.00;;;;;;5054012;28;20039;-84
2021/07/29 01:25:29;;;;;;;6.80;6.10;;;19.80;1.00;;;;;;5053615;28;20029;-84
2021/07/29 01:27:54;;;;;;;7.47;6.05;;;19.70;1.00;;;;;;5057039;28;20033;-84
2021/07/29 01:30:20;;;;;;;6.38;5.78;;;19.70;1.00;;;;;;5056726;28;20386;-84
2021/07/29 01:32:46;;;;;;;7.88;6.70;;;19.50;1.00;;;;;;5056410;28;20112;-84
2021/07/29 01:35:12;;;;;;;7.50;6.63;;;19.60;1.00;;;;;;5054697;28;20036;-84
2021/07/29 01:37:39;;;;;;;7.28;6.13;;;19.60;1.00;;;;;;5051662;28;20502;-84
2021/07/29 01:40:05;;;;;;;8.20;6.35;;;19.60;1.00;;;;;;5058333;28;20029;-84
2021/07/29 01:42:31;;;;;;;10.45;6.60;;;19.60;1.00;;;;;;5056540;28;20052;-83
2021/07/29 01:44:56;;;;;;;8.57;6.25;;;19.50;1.00;;;;;;5056276;28;20488;-84
2021/07/29 01:47:22;;;;;;;8.35;6.65;;;19.50;1.00;;;;;;5056620;28;20032;-84
2021/07/29 01:49:48;;;;;;;8.45;6.35;;;19.50;1.00;;;;;;5052495;28;20029;-84
2021/07/29 01:52:13;;;;;;;9.10;6.63;;;19.60;1.00;;;;;;5055833;28;20132;-84
2021/07/29 01:54:39;;;;;;;9.70;7.28;;;19.50;1.00;;;;;;5057624;28;20040;-84
2021/07/29 01:57:06;;;;;;;8.73;6.38;;;19.40;1.00;;;;;;5055996;28;20319;-84
2021/07/29 01:59:35;;;;;;;7.97;6.43;;;19.40;1.00;;;;;;5054753;28;20025;-84
2021/07/29 02:02:02;;;;;;;10.65;6.93;;;19.50;1.00;;;;;;5053008;28;20022;-84
2021/07/29 02:04:28;;;;;;;8.95;6.38;;;19.40;1.00;;;;;;5053492;28;20033;-84
2021/07/29 02:06:53;;;;;;;7.07;6.38;;;19.30;1.00;;;;;;5056048;28;20029;-84
2021/07/29 02:09:19;;;;;;;9.00;6.35;;;19.10;1.00;;;;;;5055722;28;20067;-84
2021/07/29 02:11:49;;;;;;;9.48;6.60;;;19.10;1.00;;;;;;5056066;28;20025;-84
2021/07/29 02:14:24;;;;;;;8.30;6.65;;;19.00;1.00;;;;;;5055693;28;20027;-84
2021/07/29 02:16:50;;;;;;;8.77;7.03;;;18.90;1.00;;;;;;5052577;28;20040;-84
2021/07/29 02:19:16;;;;;;;9.25;7.05;;;18.70;1.00;;;;;;5055458;28;20385;-84
2021/07/29 02:21:44;;;;;;;7.60;6.68;;;18.80;1.00;;;;;;5056374;28;20032;-84
2021/07/29 02:24:10;;;;;;;9.68;6.90;;;18.90;1.00;;;;;;5055545;28;20029;-84
2021/07/29 02:26:35;;;;;;;8.90;6.45;;;19.00;1.00;;;;;;5054458;28;20167;-84
2021/07/29 02:29:01;;;;;;;9.90;7.05;;;19.10;1.00;;;;;;5053896;28;20496;-84
2021/07/29 02:31:26;;;;;;;9.20;6.60;;;19.10;1.00;;;;;;5053079;28;20021;-84
2021/07/29 02:33:52;;;;;;;7.75;6.57;;;19.20;1.00;;;;;;5057436;28;20024;-84
2021/07/29 02:36:18;;;;;;;8.68;6.88;;;19.30;1.00;;;;;;5054968;28;20029;-84
2021/07/29 02:38:43;;;;;;;7.68;6.50;;;19.30;1.00;;;;;;5055497;28;20021;-84
2021/07/29 02:41:09;;;;;;;7.00;6.30;;;19.30;1.00;;;;;;5053327;28;20074;-84
2021/07/29 02:43:34;;;;;;;9.70;7.05;;;19.30;1.00;;;;;;5050866;28;20545;-84
2021/07/29 02:46:00;;;;;;;8.40;6.63;;;19.40;1.00;;;;;;5056084;28;20013;-84
2021/07/29 02:48:26;;;;;;;8.98;6.72;;;19.50;1.00;;;;;;5053471;28;20029;-84
2021/07/29 02:50:53;;;;;;;7.68;6.50;;;19.50;1.00;;;;;;5055127;28;20052;-84
2021/07/29 02:53:19;;;;;;;7.30;6.15;;;19.50;1.00;;;;;;5055193;28;20049;-84
2021/07/29 02:55:45;;;;;;;10.48;6.20;;;19.60;1.00;;;;;;5051329;28;20034;-84
2021/07/29 02:58:11;;;;;;;8.15;6.60;;;19.70;1.00;;;;;;5056324;28;20025;-84
2021/07/29 03:00:36;;;;;;;7.25;6.00;;;19.70;1.00;;;;;;5053591;28;20029;-84
2021/07/29 03:03:02;;;;;;;7.00;5.72;;;19.70;1.00;;;;;;5054093;28;20540;-84
2021/07/29 03:05:27;;;;;;;8.05;6.03;;;19.60;1.00;;;;;;5054712;28;20032;-84
2021/07/29 03:07:53;;;;;;;8.48;6.43;;;19.50;1.00;;;;;;5051940;28;20032;-83
2021/07/29 03:10:19;;;;;;;6.40;5.80;;;19.40;1.00;;;;;;5054183;28;20035;-84
2021/07/29 03:12:45;;;;;;;8.13;6.07;;;19.40;1.00;;;;;;5055474;28;20109;-84
2021/07/29 03:15:11;;;;;;;9.25;6.40;;;19.40;1.00;;;;;;5054341;28;20060;-83
2021/07/29 03:17:36;;;;;;;6.15;5.53;;;19.50;1.00;;;;;;5053879;28;20020;-84
2021/07/29 03:20:02;;;;;;;6.43;5.35;;;19.60;1.00;;;;;;5051583;28;20036;-84
2021/07/29 03:22:28;;;;;;;7.47;5.10;;;19.50;1.00;;;;;;5052533;28;20028;-84
2021/07/29 03:24:54;;;;;;;5.57;4.82;;;19.50;1.00;;;;;;5054913;28;20017;-84
2021/07/29 03:27:19;;;;;;;5.32;4.78;;;19.50;1.00;;;;;;5055055;28;20111;-84
2021/07/29 03:29:45;;;;;;;6.35;5.30;;;19.40;1.00;;;;;;5054305;28;20144;-84
2021/07/29 03:32:11;;;;;;;6.05;5.45;;;19.40;1.00;;;;;;5052922;28;20073;-84
2021/07/29 03:34:36;;;;;;;5.40;4.90;;;19.50;1.00;;;;;;5050279;28;20466;-84
2021/07/29 03:37:02;;;;;;;6.70;4.88;;;19.60;1.00;;;;;;5056214;28;20021;-84
2021/07/29 03:39:28;;;;;;;5.68;5.10;;;19.70;1.00;;;;;;5054293;28;20348;-84
2021/07/29 03:41:55;;;;;;;7.70;5.57;;;19.70;1.00;;;;;;5054505;28;20017;-84
2021/07/29 03:44:20;;;;;;;5.72;5.13;;;19.80;1.00;;;;;;5054065;28;20040;-84
2021/07/29 03:46:46;;;;;;;7.30;5.28;;;19.80;1.00;;;;;;5049759;28;20192;-84
2021/07/29 03:49:12;;;;;;;7.30;5.25;;;19.80;1.00;;;;;;5055789;28;20477;-84
2021/07/29 03:51:37;;;;;;;5.82;5.13;;;19.80;1.00;;;;;;5071453;28;20164;-84
2021/07/29 03:54:03;;;;;;;6.75;5.80;;;19.90;1.00;;;;;;5053666;28;20032;-83
2021/07/29 03:56:28;;;;;;;7.10;5.38;;;19.80;1.00;;;;;;5054080;28;20303;-84
2021/07/29 03:58:54;;;;;;;7.80;5.95;;;19.80;1.00;;;;;;5050025;28;20037;-84
2021/07/29 04:01:21;;;;;;;6.60;5.40;;;19.90;1.00;;;;;;5052672;28;20374;-84
2021/07/29 04:03:47;;;;;;;9.32;5.78;;;20.00;1.00;;;;;;5052336;28;20033;-84
2021/07/29 04:06:17;;;;;;;8.75;6.15;;;20.00;1.00;;;;;;5052423;28;20028;-85
2021/07/29 04:08:43;;;;;;;6.65;6.00;;;20.00;1.00;;;;;;5054014;28;20032;-84
2021/07/29 04:11:09;;;;;;;14.35;5.72;;;19.90;1.00;;;;;;5053557;28;20107;-84
2021/07/29 04:13:34;;;;;;;8.75;6.30;;;19.80;1.00;;;;;;5050114;28;20078;-84
2021/07/29 04:16:01;;;;;;;8.07;5.78;;;19.70;1.00;;;;;;5055590;28;20388;-84
2021/07/29 04:18:27;;;;;;;10.43;6.13;;;19.70;1.00;;;;;;5053594;28;20075;-84
2021/07/29 04:20:53;;;;;;;8.57;5.60;;;19.60;1.00;;;;;;5053733;28;20107;-84
2021/07/29 04:23:18;;;;;;;7.55;5.45;;;19.60;1.00;;;;;;5056051;28;20029;-84
2021/07/29 04:25:44;;;;;;;7.35;5.78;;;19.50;1.00;;;;;;5054551;28;20109;-84
2021/07/29 04:28:10;;;;;;;8.50;5.43;;;19.50;1.00;;;;;;5059154;28;20036;-84
2021/07/29 04:30:36;;;;;;;7.68;5.30;;;19.30;1.00;;;;;;5057448;28;20034;-84
2021/07/29 04:33:01;;;;;;;6.75;5.47;;;19.30;1.00;;;;;;5057502;28;20048;-84
2021/07/29 04:35:27;;;;;;;6.85;5.68;;;19.30;1.00;;;;;;5057807;28;20062;-84
2021/07/29 04:37:52;;;;;;;7.22;5.32;;;19.20;1.00;;;;;;5053264;28;20469;-84
2021/07/29 04:40:19;;;;;;;7.43;5.68;;;19.30;1.00;;;;;;5057620;28;20033;-84
2021/07/29 04:42:44;;;;;;;6.07;5.43;;;19.30;1.00;;;;;;5058286;28;20025;-84
2021/07/29 04:45:11;;;;;;;6.15;5.55;;;19.30;1.00;;;;;;5057085;28;20021;-84
2021/07/29 04:47:36;;;;;;;7.22;5.55;;;19.30;1.00;;;;;;5057721;28;20116;-84
2021/07/29 04:50:02;;;;;;;6.32;5.63;;;19.30;1.00;;;;;;5055992;28;20119;-84
2021/07/29 04:52:28;;;;;;;9.27;5.75;;;19.30;1.00;;;;;;5054436;28;20052;-84
2021/07/29 04:54:53;;;;;;;11.57;6.18;;;19.30;1.00;;;;;;5059898;28;20068;-84
2021/07/29 04:57:19;;;;;;;7.45;5.70;;;19.40;1.00;;;;;;5056984;28;20176;-84
2021/07/29 04:59:44;;;;;;;8.15;5.88;;;19.20;1.00;;;;;;5056881;28;20507;-84
2021/07/29 05:02:10;;;;;;;9.77;5.95;;;19.20;1.00;;;;;;5056200;28;20107;-83
2021/07/29 05:04:36;;;;;;;7.40;5.75;;;19.30;1.00;;;;;;5053648;28;20028;-84
2021/07/29 05:07:02;;;;;;;8.10;6.00;;;19.30;1.00;;;;;;5058147;28;20132;-84
2021/07/29 05:09:28;;;;;;;7.55;5.90;;;19.30;1.00;;;;;;5056063;28;20493;-83
2021/07/29 05:11:54;;;;;;;8.23;5.88;;;19.40;1.00;;;;;;5056864;28;20110;-83
2021/07/29 05:14:19;;;;;;;8.52;5.90;;;19.40;1.00;;;;;;5056700;28;20036;-83
2021/07/29 05:16:45;;;;;;;6.97;5.50;;;19.40;1.00;;;;;;5053365;28;20497;-83
2021/07/29 05:19:11;;;;;;;6.40;5.80;;;19.50;1.00;;;;;;5058550;28;20108;-83
2021/07/29 05:21:40;;;;;;;7.78;5.70;;;19.60;1.00;;;;;;5056212;28;20061;-84
2021/07/29 05:24:06;;;;;;;7.65;5.47;;;19.70;1.00;;;;;;5056580;28;20021;-88
2021/07/29 05:26:31;;;;;;;9.93;5.00;;;19.70;1.00;;;;;;5056809;28;20037;-87
2021/07/29 05:28:57;;;;;;;7.22;5.63;;;19.90;1.00;;;;;;5054589;28;20025;-88
2021/07/29 05:31:23;;;;;;;8.27;5.72;;;19.90;1.00;;;;;;5056606;28;20374;-88
2021/07/29 05:33:48;;;;;;;7.18;4.93;;;20.00;1.00;;;;;;5056996;28;20478;-88
2021/07/29 05:36:14;;;;;;;5.40;4.78;;;20.10;1.00;;;;;;5057425;28;20509;-87
2021/07/29 05:38:39;;;;;;;5.30;4.43;;;20.00;1.00;;;;;;5056088;28;20021;-88
2021/07/29 05:41:09;;;;;;;5.38;4.47;;;20.10;1.00;;;;;;5060436;28;20080;-90
2021/07/29 05:43:39;;;;;;;7.50;5.25;;;20.20;1.00;;;;;;5066830;28;20018;-91
2021/07/29 05:46:09;;;;;;;7.15;4.93;;;20.20;1.00;;;;;;5058791;28;20025;-87
2021/07/29 05:48:34;;;;;;;8.13;5.10;;;20.10;1.00;;;;;;5057294;28;20029;-86
2021/07/29 05:51:04;;;;;;;5.10;4.45;;;20.30;1.00;;;;;;5061163;28;20500;-85
2021/07/29 05:53:30;;;;;;;6.07;4.57;;;20.30;1.00;;;;;;5055957;28;20045;-86
2021/07/29 05:55:56;;;;;;;5.75;4.57;;;20.40;1.00;;;;;;5053568;28;20036;-86
2021/07/29 05:58:22;;;;;;;9.30;4.38;;;20.40;1.00;;;;;;5054921;28;20520;-86
2021/07/29 06:00:48;;;;;;;4.70;4.30;;;20.60;1.00;;;;;;5055687;28;20032;-85
2021/07/29 06:03:13;;;;;;;4.80;3.92;;;20.60;1.00;;;;;;5054413;28;20485;-86
2021/07/29 06:05:39;;;;;;;4.57;3.92;;;20.70;1.00;;;;;;5055864;28;20048;-86
2021/07/29 06:08:05;;;;;;;5.22;4.20;;;20.60;1.00;;;;;;5054796;28;20481;-87
2021/07/29 06:10:31;;;;;;;4.82;3.50;;;20.70;1.00;;;;;;5051214;28;20032;-86
2021/07/29 06:12:56;;;;;;;4.68;4.07;;;20.90;1.00;;;;;;5056085;28;20115;-87
2021/07/29 06:15:22;;;;;;;6.18;4.28;;;21.00;1.00;;;;;;5056858;28;20042;-86
2021/07/29 06:17:55;;;;;;;8.50;4.10;;;21.10;99.90;;;;;;5053937;28;20021;-87
2021/07/29 06:20:21;;;;;;;4.00;3.60;;;21.10;99.90;;;;;;5053247;28;20041;-86
2021/07/29 06:22:46;;;;;;;6.57;4.20;;;21.30;99.90;;;;;;5066051;28;20028;-86
2021/07/29 06:25:14;;;;;;;5.13;3.88;;;21.40;99.90;;;;;;5056573;28;20056;-86
2021/07/29 06:27:40;;;;;;;5.30;4.10;;;21.70;99.90;;;;;;5054238;28;20456;-87
2021/07/29 06:30:06;;;;;;;4.90;3.80;;;21.60;99.90;;;;;;5055073;28;20035;-87
2021/07/29 06:32:32;;;;;;;4.43;4.03;;;21.70;99.90;;;;;;5055042;28;20020;-86
2021/07/29 06:34:58;;;;;;;6.53;4.13;;;21.60;99.90;;;;;;5051721;28;20526;-86
2021/07/29 06:37:23;;;;;;;6.00;4.15;;;21.80;99.90;;;;;;5052420;28;20025;-89
2021/07/29 06:39:49;;;;;;;4.72;3.90;;;21.90;99.90;;;;;;5054324;28;20440;-89
2021/07/29 06:42:15;;;;;;;4.70;4.03;;;21.90;99.90;;;;;;5055146;28;20059;-81
2021/07/29 06:44:41;;;;;;;6.00;4.30;;;22.00;99.90;;;;;;5054916;28;20075;-81
2021/07/29 06:47:12;;;;;;;5.55;4.43;;;22.00;99.90;;;;;;5053506;28;20025;-80
2021/07/29 06:49:37;;;;;;;7.00;4.65;;;21.80;99.90;;;;;;5051414;28;20744;-81
2021/07/29 06:52:03;;;;;;;6.55;4.43;;;21.90;99.90;;;;;;5057005;28;20052;-81
2021/07/29 06:54:29;;;;;;;5.82;4.32;;;22.00;99.90;;;;;;5055333;28;20121;-80
2021/07/29 06:56:54;;;;;;;5.40;4.38;;;22.00;99.90;;;;;;5052699;28;20072;-81
2021/07/29 06:59:20;;;;;;;5.85;4.30;;;21.90;99.90;;;;;;5054983;28;20030;-81
2021/07/29 07:01:46;;;;;;;4.72;4.03;;;22.10;99.90;;;;;;5050990;28;20405;-81
2021/07/29 07:04:12;;;;;;;7.80;4.18;;;21.90;99.90;;;;;;5056496;28;20032;-80
2021/07/29 07:06:37;;;;;;;5.80;4.05;;;21.90;99.90;;;;;;5054826;28;20056;-81
2021/07/29 07:09:03;;;;;;;4.95;4.45;;;22.20;99.90;;;;;;5054520;28;20033;-81
2021/07/29 07:11:28;;;;;;;5.15;3.92;;;22.20;99.90;;;;;;5054571;28;20032;-81
2021/07/29 07:13:55;;;;;;;8.15;4.40;;;22.40;99.90;;;;;;5050896;28;20037;-81
2021/07/29 07:16:20;;;;;;;4.30;3.72;;;22.60;99.90;;;;;;5053605;28;20052;-80
2021/07/29 07:18:46;;;;;;;4.45;4.05;;;22.80;99.90;;;;;;5054416;28;20052;-81
2021/07/29 07:21:12;;;;;;;6.63;4.03;;;22.90;99.90;;;;;;5054443;28;20017;-81
2021/07/29 07:23:40;;;;;;;7.72;3.97;;;23.20;99.90;;;;;;5054351;28;20167;-81
2021/07/29 07:26:13;;;;;;;5.18;3.70;;;22.80;99.90;;;;;;5053333;28;20553;-83
2021/07/29 07:28:39;;;;;;;4.47;3.55;;;23.00;99.90;;;;;;5050615;28;20017;-81
2021/07/29 07:31:04;;;;;;;3.83;3.50;;;23.10;99.90;;;;;;5056380;28;20032;-82
2021/07/29 07:33:30;;;;;;;6.38;4.07;;;23.00;99.90;;;;;;5053999;28;20162;-83
2021/07/29 07:35:56;;;;;;;7.28;3.90;;;22.90;99.90;;;;;;5054327;28;20043;-82
2021/07/29 07:38:21;;;;;;;5.18;4.10;;;22.80;99.90;;;;;;5053204;28;20020;-82
2021/07/29 07:40:47;;;;;;;4.43;3.80;;;22.80;99.90;;;;;;5049890;28;20109;-81
2021/07/29 07:43:12;;;;;;;4.80;3.92;;;22.60;99.90;;;;;;5055584;28;20516;-82
2021/07/29 07:45:38;;;;;;;4.82;4.00;;;22.50;99.90;;;;;;5053967;28;20570;-82
2021/07/29 07:48:04;;;;;;;4.13;3.72;;;22.50;99.90;;;;;;5054451;28;20024;-82
2021/07/29 07:50:30;;;;;;;4.40;3.63;;;22.50;99.90;;;;;;5053823;28;20025;-82
2021/07/29 07:52:56;;;;;;;5.32;4.22;;;22.50;99.90;;;;;;5049736;28;20049;-82
2021/07/29 07:55:21;;;;;;;5.38;3.42;;;22.30;99.90;;;;;;5053102;28;20033;-82
2021/07/29 07:57:47;;;;;;;4.45;3.70;;;22.10;99.90;;;;;;5053505;28;20071;-82
2021/07/29 08:00:14;;;;;;;4.65;3.40;;;22.20;99.90;;;;;;5053972;28;20551;-82
2021/07/29 08:02:40;;;;;;;4.63;3.80;;;22.20;99.90;;;;;;5053651;28;20053;-82
2021/07/29 08:05:06;;;;;;;4.68;3.65;;;22.30;99.90;;;;;;5052877;28;20459;-82
2021/07/29 08:07:31;;;;;;;4.47;3.38;;;22.30;99.90;;;;;;5050520;28;20566;-81
2021/07/29 08:09:57;;;;;;;6.05;3.63;;;22.50;99.90;;;;;;5055865;28;20025;-82
2021/07/29 08:12:23;;;;;;;5.68;3.55;;;22.50;99.90;;;;;;5053918;28;20032;-82
2021/07/29 08:14:48;;;;;;;6.38;3.53;;;22.50;99.90;;;;;;5053719;28;20083;-82
2021/07/29 08:17:14;;;;;;;4.35;3.50;;;22.50;99.90;;;;;;5053698;28;20056;-82
2021/07/29 08:19:40;;;;;;;6.50;3.85;;;22.50;99.90;;;;;;5049746;28;20112;-82
2021/07/29 08:22:05;;;;;;;6.50;3.85;;;22.70;99.90;;;;;;5055226;28;20056;-82
2021/07/29 08:24:33;;;;;;;7.00;3.90;;;22.80;99.90;;;;;;5054241;28;20025;-81
2021/07/29 08:27:00;;;;;;;5.93;4.15;;;22.80;99.90;;;;;;5053786;28;20033;-82
2021/07/29 08:29:25;;;;;;;4.18;3.38;;;22.90;99.90;;;;;;5054135;28;20378;-81
2021/07/29 08:31:51;;;;;;;4.25;3.28;;;22.70;99.90;;;;;;5049034;28;20075;-81
2021/07/29 08:34:17;;;;;;;4.82;3.25;;;22.70;99.90;;;;;;5054115;28;20504;-82
2021/07/29 08:36:43;;;;;;;4.47;3.38;;;22.80;99.90;;;;;;5052328;28;20036;-82
2021/07/29 08:39:08;;;;;;;4.60;3.20;;;23.00;99.90;;;;;;5054200;28;20090;-82
2021/07/29 08:41:35;;;;;;;3.70;3.20;;;23.20;99.90;;;;;;5052078;28;20035;-82
2021/07/29 08:44:00;;;;;;;4.53;3.53;;;23.20;99.90;;;;;;5051788;28;20021;-82
2021/07/29 08:46:26;;;;;;;4.07;3.65;;;23.40;99.90;;;;;;5051621;28;20082;-82
2021/07/29 08:48:52;;;;;;;5.80;4.00;;;23.50;99.90;;;;;;5055499;28;20021;-82
2021/07/29 08:51:26;;;;;;;3.88;3.47;;;23.50;99.90;;;;;;5052848;28;20424;-82
2021/07/29 08:53:53;;;;;;;4.65;3.50;;;23.50;99.90;;;;;;5053229;28;20044;-82
2021/07/29 08:56:23;;;;;;;4.45;3.97;;;23.60;99.90;;;;;;5055313;28;20408;-82
2021/07/29 08:58:50;;;;;;;5.57;3.50;;;23.70;99.90;;;;;;5049625;28;20239;-82
2021/07/29 09:01:15;;;;;;;4.75;3.65;;;23.80;99.90;;;;;;5054107;28;20427;-82
2021/07/29 09:03:44;;;;;;;25.42;22.67;;;23.80;99.90;;;;;;5053001;28;20104;-82
2021/07/29 09:06:14;;;;;;;22.13;17.50;;;23.90;99.90;;;;;;5052706;28;20033;-81
2021/07/29 09:08:56;;;;;;;9.98;6.82;;;24.10;99.90;;;;;;5054370;28;20078;-82
2021/07/29 09:11:36;;;;;;;4.30;3.55;;;24.00;99.90;;;;;;5055544;28;20033;-82
2021/07/29 09:14:13;;;;;;;6.50;4.68;;;24.00;99.90;;;;;;5053703;28;20095;-81
2021/07/29 09:17:01;;;;;;;5.03;4.63;;;24.10;99.90;;;;;;5052710;28;20028;-82
2021/07/29 09:19:31;;;;;;;6.53;5.88;;;24.10;99.90;;;;;;5068389;28;20032;-82
2021/07/29 09:22:23;;;;;;;13.55;12.15;;;24.10;99.90;;;;;;5056984;28;20429;-82
2021/07/29 09:25:03;;;;;;;8.40;6.18;;;24.40;99.90;;;;;;5057921;28;20035;-82
2021/07/29 09:27:38;;;;;;;4.50;4.07;;;24.30;99.90;;;;;;5056885;28;20548;-82
2021/07/29 09:30:16;;;;;;;4.22;3.83;;;24.30;99.90;;;;;;5056583;28;20025;-82
2021/07/29 09:32:55;;;;;;;4.75;4.28;;;24.10;99.90;;;;;;5056078;28;20032;-82
2021/07/29 09:35:32;;;;;;;4.55;4.10;;;24.40;99.90;;;;;;5056245;28;20420;-82
2021/07/29 09:38:01;;;;;;;4.75;4.25;;;24.60;99.90;;;;;;5053862;28;20023;-82
2021/07/29 09:40:39;;;;;;;14.90;13.30;;;24.70;99.90;;;;;;5054373;28;20086;-82
2021/07/29 09:43:09;;;;;;;6.70;5.38;;;24.80;99.90;;;;;;5056515;28;20499;-82
2021/07/29 09:45:34;;;;;;;4.53;3.97;;;24.70;99.90;;;;;;5056278;28;20094;-82
2021/07/29 09:48:01;;;;;;;4.38;3.97;;;24.60;99.90;;;;;;5057293;28;20021;-81
2021/07/29 09:50:27;;;;;;;5.10;4.47;;;24.50;99.90;;;;;;5054769;28;20111;-82
2021/07/29 09:52:54;;;;;;;4.47;4.03;;;24.50;99.90;;;;;;5051458;28;20136;-82
2021/07/29 09:55:21;;;;;;;6.70;5.60;;;24.50;99.90;;;;;;5056398;28;20072;-82
2021/07/29 09:57:47;;;;;;;6.78;5.60;;;24.70;99.90;;;;;;5057159;28;20025;-81
2021/07/29 10:00:14;;;;;;;4.63;4.22;;;25.00;99.90;;;;;;5055889;28;20111;-81
2021/07/29 10:02:42;;;;;;;5.18;4.38;;;24.90;99.90;;;;;;5056388;28;20032;-82
2021/07/29 10:05:09;;;;;;;6.63;5.78;;;24.70;99.90;;;;;;5054772;28;20086;-81
2021/07/29 10:07:39;;;;;;;6.72;4.10;;;25.10;99.90;;;;;;5052390;28;20116;-82
2021/07/29 10:10:07;;;;;;;4.72;4.10;;;24.90;99.90;;;;;;5075226;23;20005;-80
2021/07/29 10:12:33;;;;;;;5.40;4.25;;;25.00;99.90;;;;;;5071477;28;20567;-81
2021/07/29 10:15:01;;;;;;;6.28;4.28;;;25.00;99.90;;;;;;5071054;28;20059;-81
2021/07/29 10:17:35;;;;;;;5.00;4.25;;;24.90;99.90;;;;;;5071719;28;20121;-81
2021/07/29 10:20:14;;;;;;;4.82;4.00;;;24.90;99.90;;;;;;5069904;28;20027;-81
2021/07/29 10:22:40;;;;;;;7.22;4.28;;;24.90;99.90;;;;;;5071532;28;20071;-81
2021/07/29 10:25:06;;;;;;;5.28;4.38;;;25.10;99.90;;;;;;5073881;28;20054;-81
2021/07/29 10:27:32;;;;;;;4.97;4.10;;;25.10;99.90;;;;;;5070928;28;20119;-81
2021/07/29 10:30:19;;;;;;;5.65;3.95;;;25.50;99.90;;;;;;5056146;28;20031;-81
2021/07/29 10:32:47;;;;;;;5.05;4.15;;;25.60;99.90;;;;;;5068850;28;20424;-81
2021/07/29 10:35:30;;;;;;;5.70;3.90;;;25.50;99.90;;;;;;5071759;28;20028;-80
2021/07/29 10:37:59;;;;;;;6.50;4.05;;;25.40;99.90;;;;;;5056973;28;20500;-81
2021/07/29 10:40:39;;;;;;;4.97;3.92;;;25.40;99.90;;;;;;5071315;28;20033;-80
2021/07/29 10:43:20;;;;;;;7.18;4.47;;;25.50;99.90;;;;;;5072070;28;20043;-80
2021/07/29 10:45:56;;;;;;;7.32;4.28;;;25.70;99.90;;;;;;5071169;28;20044;-80
2021/07/29 10:48:41;;;;;;;4.32;3.92;;;25.90;99.90;;;;;;5070687;28;20039;-80
2021/07/29 10:51:16;;;;;;;6.97;3.95;;;26.10;99.90;;;;;;5071015;28;20403;-80
2021/07/29 10:53:43;;;;;;;4.82;4.32;;;26.30;99.90;;;;;;5070677;28;20033;-81
2021/07/29 10:56:14;;;;;;;5.55;4.30;;;26.30;99.90;;;;;;5070346;28;20036;-81
2021/07/29 10:58:40;;;;;;;5.20;4.30;;;26.40;99.90;;;;;;5070916;28;20021;-81
2021/07/29 11:01:06;;;;;;;5.22;4.10;;;26.50;99.90;;;;;;5071655;28;20036;-81
2021/07/29 11:03:32;;;;;;;5.60;4.30;;;26.40;99.90;;;;;;5069912;28;20028;-81
2021/07/29 11:06:06;;;;;;;4.82;3.85;;;26.30;99.90;;;;;;5070643;28;20040;-81
2021/07/29 11:08:32;;;;;;;6.05;3.95;;;26.60;99.90;;;;;;5069194;28;20024;-81
2021/07/29 11:10:59;;;;;;;4.57;3.88;;;26.80;99.90;;;;;;5068616;28;20132;-80
2021/07/29 11:13:28;;;;;;;4.63;4.13;;;26.70;99.90;;;;;;5070794;28;20546;-81
2021/07/29 11:15:54;;;;;;;5.18;3.97;;;26.70;99.90;;;;;;5071632;28;20032;-81
2021/07/29 11:18:21;;;;;;;4.60;4.10;;;26.90;99.90;;;;;;5069952;28;20021;-80
2021/07/29 11:20:47;;;;;;;5.00;3.90;;;27.10;99.90;;;;;;5069806;28;20033;-81
2021/07/29 11:23:16;;;;;;;5.07;4.00;;;27.60;99.90;;;;;;5053437;28;20028;-81
2021/07/29 11:25:56;;;;;;;5.32;4.03;;;27.60;99.90;;;;;;5054115;28;20025;-81
2021/07/29 11:28:21;;;;;;;5.72;4.28;;;28.30;99.90;;;;;;5068258;28;20032;-81
2021/07/29 11:30:50;;;;;;;3.60;3.30;;;30.40;99.90;;;;;;5070162;28;20397;-81
2021/07/29 11:33:23;;;;;;;4.22;3.67;;;33.90;99.90;;;;;;5056662;28;20388;-81
2021/07/29 11:35:50;;;;;;;5.45;4.18;;;36.30;99.90;;;;;;5069682;28;20051;-80
2021/07/29 11:38:18;;;;;;;4.70;4.10;;;37.60;99.90;;;;;;5070217;28;20464;-81
2021/07/29 11:40:44;;;;;;;6.15;4.60;;;38.50;99.90;;;;;;5070100;28;20519;-81
2021/07/29 11:43:27;;;;;;;4.25;3.85;;;39.80;99.90;;;;;;5067529;28;20036;-81
2021/07/29 11:46:06;;;;;;;4.53;3.65;;;40.40;99.90;;;;;;5070950;28;20033;-81
2021/07/29 11:48:32;;;;;;;4.57;3.78;;;41.40;99.90;;;;;;5068464;28;20028;-81
2021/07/29 11:50:57;;;;;;;4.15;3.75;;;41.70;99.90;;;;;;5067793;28;20077;-81
2021/07/29 11:53:40;;;;;;;5.07;3.63;;;41.60;99.90;;;;;;5069732;28;20040;-81
2021/07/29 11:56:08;;;;;;;3.90;3.60;;;41.20;99.90;;;;;;5069824;28;20070;-81
2021/07/29 11:58:35;;;;;;;4.97;3.80;;;40.80;99.90;;;;;;5069619;28;20041;-81
2021/07/29 12:01:11;;;;;;;4.50;4.10;;;40.90;99.90;;;;;;5070990;28;20043;-81
2021/07/29 12:03:41;;;;;;;4.05;3.75;;;41.30;99.90;;;;;;5069710;28;20028;-81
2021/07/29 12:06:08;;;;;;;4.10;3.45;;;42.40;99.90;;;;;;5069266;28;20033;-81
2021/07/29 12:08:35;;;;;;;4.18;3.88;;;42.90;99.90;;;;;;5055081;28;20093;-81
2021/07/29 12:11:01;;;;;;;5.93;4.20;;;42.80;99.90;;;;;;5069492;28;20040;-82
2021/07/29 12:13:29;;;;;;;4.25;3.85;;;42.20;99.90;;;;;;5069403;28;20035;-81
2021/07/29 12:15:57;;;;;;;4.28;3.85;;;43.00;99.90;;;;;;5071260;28;20186;-82
2021/07/29 12:18:23;;;;;;;4.85;4.35;;;42.90;99.90;;;;;;5069249;28;20060;-81
2021/07/29 12:20:51;;;;;;;4.32;3.75;;;42.20;99.90;;;;;;5069086;28;20097;-82
2021/07/29 12:23:16;;;;;;;4.43;4.03;;;42.80;99.90;;;;;;5070073;28;20025;-81
2021/07/29 12:25:44;;;;;;;5.18;4.75;;;42.40;99.90;;;;;;5068253;28;20104;-82
2021/07/29 12:28:11;;;;;;;4.13;3.72;;;42.60;99.90;;;;;;5070989;28;20020;-81
2021/07/29 12:30:41;;;;;;;5.85;3.92;;;42.90;99.90;;;;;;5067301;28;20056;-81
2021/07/29 12:33:18;;;;;;;4.47;4.07;;;42.90;99.90;;;;;;5069019;28;20365;-82
2021/07/29 12:36:06;;;;;;;4.85;3.92;;;42.50;99.90;;;;;;5069019;28;20040;-81
2021/07/29 12:38:36;;;;;;;5.32;3.67;;;42.60;99.90;;;;;;5069041;28;20035;-81
2021/07/29 12:41:05;;;;;;;4.88;3.83;;;42.00;99.90;;;;;;5068813;28;20048;-81
2021/07/29 12:43:31;;;;;;;7.70;4.13;;;41.90;99.90;;;;;;5070000;28;20111;-82
2021/07/29 12:46:03;;;;;;;4.40;4.10;;;41.90;99.90;;;;;;5075413;28;20025;-82
2021/07/29 12:48:30;;;;;;;4.80;3.75;;;42.70;99.90;;;;;;5072919;28;20070;-82
2021/07/29 12:50:57;;;;;;;4.40;4.00;;;43.10;99.90;;;;;;5073184;28;20104;-82